KARV/ARV METAR and TAF weather

Enter ICAO airport designator
Station Type Date Time Source
KARV METAR 2019/12/11 09:35 UTC NOAA

KARV 110935Z AUTO 27004KT 10SM CLR M23/M25 A3006 RMK AO2 T12261251


Station Type Date Time Source
KARV Decoded METAR 2019/12/11 09:35 UTC NOAA

Minocqua/Woodruff, Lakeland Airport/Noble F. Lee Memorial Field, WI, United States (KARV) 45-56N 089-44W
Dec 11, 2019 - 04:35 AM EST / 2019.12.11 0935 UTC
Wind: from the W (270 degrees) at 5 MPH (4 KT):0
Visibility: 10 mile(s):0
Sky conditions: clear
Temperature: -8.7 F (-22.6 C)
Windchill: -20 F (-29 C):2
Dew Point: -13.2 F (-25.1 C)
Relative Humidity: 80%
Pressure (altimeter): 30.06 in. Hg (1017 hPa)
ob: KARV 110935Z AUTO 27004KT 10SM CLR M23/M25 A3006 RMK AO2 T12261251
cycle: 9

Station Type Date Time Source
KARV TAF UTC NOAA

Error!

Example: see airport list